Terminal Aerodrome Forecast
Issued by NWS

Current Version | Previous Version | Text Only | Print | Product List | Glossary On
Versions: 1 2 3 4 5 6 7 8 9 10 11 12 13 14 15 16 17 18 19 20
000
FTUS43 KBIS 011120
TAFMOT
TAF
KMOT 011120Z 0112/0212 32003KT 1/4SM FG VV001
     FM011500 04004KT 3SM BR BKN030
     FM012100 36003KT P6SM VCTS BKN050CB
     FM020200 34002KT P6SM SKC=

USA.gov is the U.S. government's official web portal to all federal, state and local government web resources and services.